Schiermonnikoog Heliport

NL-0077 · Friesland, 荷兰

使用的METAR站距离机场40 km。
罗盘
风向 的 风向 的 风向 到 风向 220° 直升机
风: 6 kt, 2 beaufort
0 ft 1.000 2.000 3.000 4.000 5.000
Cloud Cloud
FEW 1.100
METAR EHLW 230725Z AUTO 22006KT 200V290 9999 FEW011 18/15 Q1018 BLU

METAR Schiermonnikoog Heliport - NL-0077

Schiermonnikoog Heliport是,荷兰中的直升机场。 该机场位于纬度53,47314和经度6,19463。 这个机场没有ICAO代码,我们使用NL-0077作为参考。 机场在Amsterdam FIR中。

该航空气象观测是针对Leeuwarden Air Base在2024年6月23日 09:25, 当地时间进行的。

机场观察

风向为220°,速度为6 kt。 风向在200°和290°之间变化。

可见度为10 km 或者更多。

有几云在1.100 ft的高度。 没有观察到天花板。

温度和风寒是18 °C。 露点为15 °C,相对湿度为83%。 海平面上的气压为1018 hPa (QNH)。

白天

今天,太阳从05:06升起,在22:08降落。 这适用于Schiermonnikoog Heliport,世界夏令时可能有所不同。 当地时间与世界标准时间之间的时差为+2 小时。 夏令时目前正在进行中。

公司介绍

我们没有关于这个机场的公司信息。

体会

到Vliegles.nl去找飞行课程,跳伞和其他飞行体验。 浏览页面,了解Schiermonnikoog Heliport附近所有可用的活动。 你也可以使用搜索功能来寻找你所在地附近的特定飞行课程、跳伞或其他飞行体验。

乌云

1.100 ft FEW 几云

温度 & 天气

温度 18 °C
露点 15 °C
相对湿度 83%
Kp-index 2 (0-9)

白天

日出
05:10
中午
13:39
日落
22:08 (12:25)

小工具

你想在你的网站上有一个关于Schiermonnikoog Heliport的当前航空天气(METAR)的小部件吗?

显示HTML代码
报告变更